sensor_id;sensor_type;location;lat;lon;timestamp;temperature;humidity
21092;DHT22;10704;42.678;23.288;2022-10-16T00:01:12;8.40;99.90
21092;DHT22;10704;42.678;23.288;2022-10-16T00:03:39;8.50;99.90
21092;DHT22;10704;42.678;23.288;2022-10-16T00:06:06;8.40;99.90
21092;DHT22;10704;42.678;23.288;2022-10-16T00:08:32;8.40;99.90
21092;DHT22;10704;42.678;23.288;2022-10-16T00:11:10;8.30;99.90
21092;DHT22;10704;42.678;23.288;2022-10-16T00:13:39;8.30;99.90
21092;DHT22;10704;42.678;23.288;2022-10-16T00:16:06;8.20;99.90
21092;DHT22;10704;42.678;23.288;2022-10-16T00:18:32;8.10;99.90
21092;DHT22;10704;42.678;23.288;2022-10-16T00:21:07;8.00;99.90
21092;DHT22;10704;42.678;23.288;2022-10-16T00:23:33;8.00;99.90
21092;DHT22;10704;42.678;23.288;2022-10-16T00:26:03;8.00;99.90
21092;DHT22;10704;42.678;23.288;2022-10-16T00:43:49;7.80;99.90
21092;DHT22;10704;42.678;23.288;2022-10-16T00:52:48;8.00;99.90
21092;DHT22;10704;42.678;23.288;2022-10-16T00:55:16;8.10;99.90
21092;DHT22;10704;42.678;23.288;2022-10-16T01:01:30;8.00;99.90
21092;DHT22;10704;42.678;23.288;2022-10-16T01:03:56;7.80;99.90
21092;DHT22;10704;42.678;23.288;2022-10-16T01:10:32;7.90;99.90
21092;DHT22;10704;42.678;23.288;2022-10-16T01:13:07;7.90;99.90
21092;DHT22;10704;42.678;23.288;2022-10-16T01:15:51;7.90;99.90
21092;DHT22;10704;42.678;23.288;2022-10-16T01:21:05;7.90;99.90
21092;DHT22;10704;42.678;23.288;2022-10-16T01:28:55;7.90;99.90
21092;DHT22;10704;42.678;23.288;2022-10-16T01:31:26;7.90;99.90
21092;DHT22;10704;42.678;23.288;2022-10-16T01:37:23;7.70;99.90
21092;DHT22;10704;42.678;23.288;2022-10-16T01:43:05;7.90;99.90
21092;DHT22;10704;42.678;23.288;2022-10-16T01:49:21;8.00;99.90
21092;DHT22;10704;42.678;23.288;2022-10-16T01:52:04;7.80;99.90
21092;DHT22;10704;42.678;23.288;2022-10-16T01:57:49;7.60;99.90
21092;DHT22;10704;42.678;23.288;2022-10-16T02:00:17;7.50;99.90
21092;DHT22;10704;42.678;23.288;2022-10-16T02:02:49;7.40;99.90
21092;DHT22;10704;42.678;23.288;2022-10-16T02:05:26;7.30;99.90
21092;DHT22;10704;42.678;23.288;2022-10-16T02:07:53;7.20;99.90
21092;DHT22;10704;42.678;23.288;2022-10-16T02:14:07;7.10;99.90
21092;DHT22;10704;42.678;23.288;2022-10-16T02:16:42;7.10;99.90
21092;DHT22;10704;42.678;23.288;2022-10-16T02:19:12;7.00;99.90
21092;DHT22;10704;42.678;23.288;2022-10-16T02:24:38;6.90;99.90
21092;DHT22;10704;42.678;23.288;2022-10-16T02:30:28;6.90;99.90
21092;DHT22;10704;42.678;23.288;2022-10-16T02:36:33;7.00;99.90
21092;DHT22;10704;42.678;23.288;2022-10-16T02:39:01;6.90;99.90
21092;DHT22;10704;42.678;23.288;2022-10-16T02:45:14;6.80;99.90
21092;DHT22;10704;42.678;23.288;2022-10-16T02:47:40;6.80;99.90
21092;DHT22;10704;42.678;23.288;2022-10-16T02:50:06;6.80;99.90
21092;DHT22;10704;42.678;23.288;2022-10-16T02:53:09;6.80;99.90
21092;DHT22;10704;42.678;23.288;2022-10-16T02:59:22;6.90;99.90
21092;DHT22;10704;42.678;23.288;2022-10-16T03:05:35;6.80;99.90
21092;DHT22;10704;42.678;23.288;2022-10-16T03:11:48;6.80;99.90
21092;DHT22;10704;42.678;23.288;2022-10-16T03:14:14;6.70;99.90
21092;DHT22;10704;42.678;23.288;2022-10-16T03:16:40;6.70;99.90
21092;DHT22;10704;42.678;23.288;2022-10-16T03:19:06;6.60;99.90
21092;DHT22;10704;42.678;23.288;2022-10-16T03:21:32;6.70;99.90
21092;DHT22;10704;42.678;23.288;2022-10-16T03:31:32;6.60;99.90
21092;DHT22;10704;42.678;23.288;2022-10-16T03:33:58;6.50;99.90
21092;DHT22;10704;42.678;23.288;2022-10-16T03:36:24;6.50;99.90
21092;DHT22;10704;42.678;23.288;2022-10-16T03:38:50;6.50;99.90
21092;DHT22;10704;42.678;23.288;2022-10-16T03:48:50;6.70;99.90
21092;DHT22;10704;42.678;23.288;2022-10-16T03:51:16;6.60;99.90
21092;DHT22;10704;42.678;23.288;2022-10-16T03:53:42;6.70;99.90
21092;DHT22;10704;42.678;23.288;2022-10-16T03:56:07;6.60;99.90
21092;DHT22;10704;42.678;23.288;2022-10-16T03:58:33;6.60;99.90
21092;DHT22;10704;42.678;23.288;2022-10-16T04:00:59;6.50;99.90
21092;DHT22;10704;42.678;23.288;2022-10-16T04:03:25;6.60;99.90
21092;DHT22;10704;42.678;23.288;2022-10-16T04:05:51;6.50;99.90
21092;DHT22;10704;42.678;23.288;2022-10-16T04:08:17;6.50;99.90
21092;DHT22;10704;42.678;23.288;2022-10-16T04:10:44;6.40;99.90
21092;DHT22;10704;42.678;23.288;2022-10-16T04:13:10;6.40;99.90
21092;DHT22;10704;42.678;23.288;2022-10-16T04:15:36;6.40;99.90
21092;DHT22;10704;42.678;23.288;2022-10-16T04:18:02;6.40;99.90
21092;DHT22;10704;42.678;23.288;2022-10-16T04:20:27;6.30;99.90
21092;DHT22;10704;42.678;23.288;2022-10-16T04:22:53;6.20;99.90
21092;DHT22;10704;42.678;23.288;2022-10-16T04:25:19;6.20;99.90
21092;DHT22;10704;42.678;23.288;2022-10-16T04:39:43;6.10;99.90
21092;DHT22;10704;42.678;23.288;2022-10-16T04:42:10;6.10;99.90
21092;DHT22;10704;42.678;23.288;2022-10-16T04:44:36;6.10;99.90
21092;DHT22;10704;42.678;23.288;2022-10-16T04:47:02;6.20;99.90
21092;DHT22;10704;42.678;23.288;2022-10-16T04:49:29;6.20;99.90
21092;DHT22;10704;42.678;23.288;2022-10-16T04:51:55;6.20;99.90
21092;DHT22;10704;42.678;23.288;2022-10-16T04:54:21;6.30;99.90
21092;DHT22;10704;42.678;23.288;2022-10-16T04:56:47;6.30;99.90
21092;DHT22;10704;42.678;23.288;2022-10-16T04:59:17;6.30;99.90
21092;DHT22;10704;42.678;23.288;2022-10-16T05:01:44;6.30;99.90
21092;DHT22;10704;42.678;23.288;2022-10-16T05:04:10;6.40;99.90
21092;DHT22;10704;42.678;23.288;2022-10-16T05:06:37;6.30;99.90
21092;DHT22;10704;42.678;23.288;2022-10-16T05:09:05;6.50;99.90
21092;DHT22;10704;42.678;23.288;2022-10-16T05:11:31;6.60;99.90
21092;DHT22;10704;42.678;23.288;2022-10-16T05:13:57;6.60;99.90
21092;DHT22;10704;42.678;23.288;2022-10-16T05:16:23;6.70;99.90
21092;DHT22;10704;42.678;23.288;2022-10-16T05:18:51;6.70;99.90
21092;DHT22;10704;42.678;23.288;2022-10-16T05:21:17;6.80;99.90
21092;DHT22;10704;42.678;23.288;2022-10-16T05:23:42;6.90;99.90
21092;DHT22;10704;42.678;23.288;2022-10-16T05:26:08;7.00;99.90
21092;DHT22;10704;42.678;23.288;2022-10-16T05:28:34;7.10;99.90
21092;DHT22;10704;42.678;23.288;2022-10-16T05:31:34;7.20;99.90
21092;DHT22;10704;42.678;23.288;2022-10-16T05:34:09;7.20;99.90
21092;DHT22;10704;42.678;23.288;2022-10-16T05:36:35;7.20;99.90
21092;DHT22;10704;42.678;23.288;2022-10-16T05:39:01;7.30;99.90
21092;DHT22;10704;42.678;23.288;2022-10-16T05:41:27;7.30;99.90
21092;DHT22;10704;42.678;23.288;2022-10-16T05:43:53;7.50;99.90
21092;DHT22;10704;42.678;23.288;2022-10-16T05:46:19;7.60;99.90
21092;DHT22;10704;42.678;23.288;2022-10-16T05:48:45;7.60;99.90
21092;DHT22;10704;42.678;23.288;2022-10-16T05:51:13;7.70;99.90
21092;DHT22;10704;42.678;23.288;2022-10-16T06:01:33;7.90;99.90
21092;DHT22;10704;42.678;23.288;2022-10-16T06:04:01;8.10;99.90
21092;DHT22;10704;42.678;23.288;2022-10-16T06:06:28;8.20;99.90
21092;DHT22;10704;42.678;23.288;2022-10-16T06:08:56;8.30;99.90
21092;DHT22;10704;42.678;23.288;2022-10-16T06:11:27;8.40;99.90
21092;DHT22;10704;42.678;23.288;2022-10-16T06:13:56;8.50;99.90
21092;DHT22;10704;42.678;23.288;2022-10-16T06:16:23;8.50;99.90
21092;DHT22;10704;42.678;23.288;2022-10-16T06:18:54;8.60;99.90
21092;DHT22;10704;42.678;23.288;2022-10-16T06:21:23;8.60;99.90
21092;DHT22;10704;42.678;23.288;2022-10-16T06:23:54;8.60;99.90
21092;DHT22;10704;42.678;23.288;2022-10-16T06:26:22;8.80;99.90
21092;DHT22;10704;42.678;23.288;2022-10-16T06:32:51;9.30;99.90
21092;DHT22;10704;42.678;23.288;2022-10-16T06:35:17;9.40;99.90
21092;DHT22;10704;42.678;23.288;2022-10-16T06:41:00;9.60;99.90
21092;DHT22;10704;42.678;23.288;2022-10-16T06:43:29;9.80;99.90
21092;DHT22;10704;42.678;23.288;2022-10-16T06:45:59;10.00;99.90
21092;DHT22;10704;42.678;23.288;2022-10-16T06:48:25;10.20;99.90
21092;DHT22;10704;42.678;23.288;2022-10-16T06:51:02;10.40;99.90
21092;DHT22;10704;42.678;23.288;2022-10-16T06:53:32;10.60;99.90
21092;DHT22;10704;42.678;23.288;2022-10-16T06:56:07;10.80;99.90
21092;DHT22;10704;42.678;23.288;2022-10-16T06:58:33;11.00;99.90
21092;DHT22;10704;42.678;23.288;2022-10-16T07:00:59;11.30;99.90
21092;DHT22;10704;42.678;23.288;2022-10-16T07:03:25;11.50;99.90
21092;DHT22;10704;42.678;23.288;2022-10-16T07:13:26;12.10;99.90
21092;DHT22;10704;42.678;23.288;2022-10-16T07:15:52;12.60;99.90
21092;DHT22;10704;42.678;23.288;2022-10-16T07:18:18;13.00;99.90
21092;DHT22;10704;42.678;23.288;2022-10-16T07:24:41;13.30;99.90
21092;DHT22;10704;42.678;23.288;2022-10-16T07:27:07;13.20;99.90
21092;DHT22;10704;42.678;23.288;2022-10-16T07:29:33;13.60;99.90
21092;DHT22;10704;42.678;23.288;2022-10-16T07:31:59;14.20;99.90
21092;DHT22;10704;42.678;23.288;2022-10-16T07:34:24;14.40;99.90
21092;DHT22;10704;42.678;23.288;2022-10-16T07:36:52;14.40;99.90
21092;DHT22;10704;42.678;23.288;2022-10-16T07:39:18;14.50;99.90
21092;DHT22;10704;42.678;23.288;2022-10-16T07:41:44;14.30;99.90
21092;DHT22;10704;42.678;23.288;2022-10-16T07:44:09;14.60;99.90
21092;DHT22;10704;42.678;23.288;2022-10-16T07:46:35;14.90;99.90
21092;DHT22;10704;42.678;23.288;2022-10-16T07:49:02;15.70;99.90
21092;DHT22;10704;42.678;23.288;2022-10-16T07:51:28;16.10;99.90
21092;DHT22;10704;42.678;23.288;2022-10-16T07:53:54;16.40;99.90
21092;DHT22;10704;42.678;23.288;2022-10-16T08:00:08;17.20;99.90
21092;DHT22;10704;42.678;23.288;2022-10-16T08:02:40;17.50;97.70
21092;DHT22;10704;42.678;23.288;2022-10-16T08:05:06;17.70;96.60
21092;DHT22;10704;42.678;23.288;2022-10-16T08:07:32;18.10;95.40
21092;DHT22;10704;42.678;23.288;2022-10-16T08:09:58;18.30;94.10
21092;DHT22;10704;42.678;23.288;2022-10-16T08:12:25;18.60;92.90
21092;DHT22;10704;42.678;23.288;2022-10-16T08:14:51;19.40;91.30
21092;DHT22;10704;42.678;23.288;2022-10-16T08:17:17;19.30;90.00
21092;DHT22;10704;42.678;23.288;2022-10-16T08:19:47;19.20;90.30
21092;DHT22;10704;42.678;23.288;2022-10-16T08:25:23;19.70;86.60
21092;DHT22;10704;42.678;23.288;2022-10-16T08:28:10;19.90;85.30
21092;DHT22;10704;42.678;23.288;2022-10-16T08:33:55;20.80;81.00
21092;DHT22;10704;42.678;23.288;2022-10-16T08:39:36;21.20;77.10
21092;DHT22;10704;42.678;23.288;2022-10-16T08:58:30;23.30;67.80
21092;DHT22;10704;42.678;23.288;2022-10-16T09:01:01;24.00;63.80
21092;DHT22;10704;42.678;23.288;2022-10-16T09:14:58;24.40;59.80
21092;DHT22;10704;42.678;23.288;2022-10-16T09:20:28;24.10;57.20
21092;DHT22;10704;42.678;23.288;2022-10-16T09:25:50;24.40;56.90
21092;DHT22;10704;42.678;23.288;2022-10-16T09:28:18;25.20;55.20
21092;DHT22;10704;42.678;23.288;2022-10-16T09:30:44;25.50;54.90
21092;DHT22;10704;42.678;23.288;2022-10-16T09:33:12;26.00;54.30
21092;DHT22;10704;42.678;23.288;2022-10-16T09:36:08;26.80;52.20
21092;DHT22;10704;42.678;23.288;2022-10-16T09:38:35;26.90;50.70
21092;DHT22;10704;42.678;23.288;2022-10-16T09:41:18;26.90;50.10
21092;DHT22;10704;42.678;23.288;2022-10-16T09:43:59;26.70;50.80
21092;DHT22;10704;42.678;23.288;2022-10-16T09:46:34;27.00;50.00
21092;DHT22;10704;42.678;23.288;2022-10-16T09:49:16;27.20;49.90
21092;DHT22;10704;42.678;23.288;2022-10-16T09:51:44;27.80;49.30
21092;DHT22;10704;42.678;23.288;2022-10-16T09:57:57;26.70;48.50
21092;DHT22;10704;42.678;23.288;2022-10-16T10:00:24;25.90;49.50
21092;DHT22;10704;42.678;23.288;2022-10-16T10:02:50;26.00;49.80
21092;DHT22;10704;42.678;23.288;2022-10-16T10:05:22;26.10;50.40
21092;DHT22;10704;42.678;23.288;2022-10-16T10:07:55;26.40;49.20
21092;DHT22;10704;42.678;23.288;2022-10-16T10:10:27;26.60;49.50
21092;DHT22;10704;42.678;23.288;2022-10-16T10:12:54;27.00;48.80
21092;DHT22;10704;42.678;23.288;2022-10-16T10:15:21;27.00;48.70
21092;DHT22;10704;42.678;23.288;2022-10-16T10:17:58;26.50;49.00
21092;DHT22;10704;42.678;23.288;2022-10-16T10:20:28;26.70;48.90
21092;DHT22;10704;42.678;23.288;2022-10-16T10:22:55;26.90;48.60
21092;DHT22;10704;42.678;23.288;2022-10-16T10:31:02;26.60;48.00
21092;DHT22;10704;42.678;23.288;2022-10-16T10:50:38;27.80;44.70
21092;DHT22;10704;42.678;23.288;2022-10-16T11:06:32;28.20;46.10
21092;DHT22;10704;42.678;23.288;2022-10-16T11:09:18;28.20;44.60
21092;DHT22;10704;42.678;23.288;2022-10-16T11:11:45;27.90;43.70
21092;DHT22;10704;42.678;23.288;2022-10-16T11:14:30;27.70;44.70
21092;DHT22;10704;42.678;23.288;2022-10-16T11:20:21;28.30;44.60
21092;DHT22;10704;42.678;23.288;2022-10-16T11:23:00;28.20;43.50
21092;DHT22;10704;42.678;23.288;2022-10-16T11:25:30;28.30;42.30
21092;DHT22;10704;42.678;23.288;2022-10-16T11:30:50;28.30;42.40
21092;DHT22;10704;42.678;23.288;2022-10-16T11:36:31;28.10;43.30
21092;DHT22;10704;42.678;23.288;2022-10-16T11:50:00;27.40;44.30
21092;DHT22;10704;42.678;23.288;2022-10-16T11:52:40;27.40;44.40
21092;DHT22;10704;42.678;23.288;2022-10-16T11:55:23;27.00;44.80
21092;DHT22;10704;42.678;23.288;2022-10-16T11:58:03;26.50;44.80
21092;DHT22;10704;42.678;23.288;2022-10-16T12:00:38;26.80;44.70
21092;DHT22;10704;42.678;23.288;2022-10-16T12:05:55;27.30;43.80
21092;DHT22;10704;42.678;23.288;2022-10-16T12:08:24;27.10;44.20
21092;DHT22;10704;42.678;23.288;2022-10-16T12:14:39;27.20;44.70
21092;DHT22;10704;42.678;23.288;2022-10-16T12:20:02;27.20;44.90
21092;DHT22;10704;42.678;23.288;2022-10-16T12:22:49;26.60;45.70
21092;DHT22;10704;42.678;23.288;2022-10-16T12:25:37;26.60;46.20
21092;DHT22;10704;42.678;23.288;2022-10-16T12:30:42;26.40;46.30
21092;DHT22;10704;42.678;23.288;2022-10-16T12:33:25;26.10;46.60
21092;DHT22;10704;42.678;23.288;2022-10-16T12:35:51;26.10;46.90
21092;DHT22;10704;42.678;23.288;2022-10-16T12:38:36;26.10;46.10
21092;DHT22;10704;42.678;23.288;2022-10-16T12:41:08;26.00;46.40
21092;DHT22;10704;42.678;23.288;2022-10-16T12:43:46;26.20;45.90
21092;DHT22;10704;42.678;23.288;2022-10-16T12:48:42;25.70;47.10
21092;DHT22;10704;42.678;23.288;2022-10-16T12:51:12;26.00;46.80
21092;DHT22;10704;42.678;23.288;2022-10-16T12:53:38;25.90;47.00
21092;DHT22;10704;42.678;23.288;2022-10-16T12:58:37;26.00;47.20
21092;DHT22;10704;42.678;23.288;2022-10-16T13:06:43;25.80;46.70
21092;DHT22;10704;42.678;23.288;2022-10-16T13:20:39;24.70;49.10
21092;DHT22;10704;42.678;23.288;2022-10-16T13:28:45;25.00;48.20
21092;DHT22;10704;42.678;23.288;2022-10-16T13:31:22;25.40;46.90
21092;DHT22;10704;42.678;23.288;2022-10-16T13:33:52;25.20;46.50
21092;DHT22;10704;42.678;23.288;2022-10-16T13:36:26;25.00;47.20
21092;DHT22;10704;42.678;23.288;2022-10-16T13:39:15;24.90;47.40
21092;DHT22;10704;42.678;23.288;2022-10-16T13:41:57;24.90;46.80
21092;DHT22;10704;42.678;23.288;2022-10-16T13:44:23;25.10;46.60
21092;DHT22;10704;42.678;23.288;2022-10-16T13:46:58;25.10;47.20
21092;DHT22;10704;42.678;23.288;2022-10-16T13:49:24;24.90;47.40
21092;DHT22;10704;42.678;23.288;2022-10-16T13:51:55;25.00;47.30
21092;DHT22;10704;42.678;23.288;2022-10-16T13:54:22;24.80;47.50
21092;DHT22;10704;42.678;23.288;2022-10-16T13:56:48;24.80;47.50
21092;DHT22;10704;42.678;23.288;2022-10-16T13:59:33;24.50;47.50
21092;DHT22;10704;42.678;23.288;2022-10-16T14:02:00;24.10;48.40
21092;DHT22;10704;42.678;23.288;2022-10-16T14:04:32;24.50;48.10
21092;DHT22;10704;42.678;23.288;2022-10-16T14:06:58;24.30;48.00
21092;DHT22;10704;42.678;23.288;2022-10-16T14:09:29;24.70;47.30
21092;DHT22;10704;42.678;23.288;2022-10-16T14:11:58;24.90;46.80
21092;DHT22;10704;42.678;23.288;2022-10-16T14:14:25;25.00;46.70
21092;DHT22;10704;42.678;23.288;2022-10-16T14:16:52;24.90;46.50
21092;DHT22;10704;42.678;23.288;2022-10-16T14:19:26;24.80;46.70
21092;DHT22;10704;42.678;23.288;2022-10-16T14:21:53;25.00;46.40
21092;DHT22;10704;42.678;23.288;2022-10-16T14:24:33;24.80;46.00
21092;DHT22;10704;42.678;23.288;2022-10-16T14:27:00;24.40;46.50
21092;DHT22;10704;42.678;23.288;2022-10-16T14:29:28;24.20;46.90
21092;DHT22;10704;42.678;23.288;2022-10-16T14:32:00;24.40;46.50
21092;DHT22;10704;42.678;23.288;2022-10-16T14:34:33;24.40;46.30
21092;DHT22;10704;42.678;23.288;2022-10-16T14:37:23;24.20;46.30
21092;DHT22;10704;42.678;23.288;2022-10-16T14:39:50;24.00;46.60
21092;DHT22;10704;42.678;23.288;2022-10-16T14:42:18;24.40;46.30
21092;DHT22;10704;42.678;23.288;2022-10-16T14:44:46;24.00;46.10
21092;DHT22;10704;42.678;23.288;2022-10-16T14:47:16;23.40;47.00
21092;DHT22;10704;42.678;23.288;2022-10-16T14:49:48;22.90;48.20
21092;DHT22;10704;42.678;23.288;2022-10-16T14:52:14;22.40;49.00
21092;DHT22;10704;42.678;23.288;2022-10-16T14:54:40;21.80;50.10
21092;DHT22;10704;42.678;23.288;2022-10-16T14:57:17;21.00;51.20
21092;DHT22;10704;42.678;23.288;2022-10-16T14:59:43;20.50;52.10
21092;DHT22;10704;42.678;23.288;2022-10-16T15:04:49;19.60;53.80
21092;DHT22;10704;42.678;23.288;2022-10-16T15:07:15;19.30;54.60
21092;DHT22;10704;42.678;23.288;2022-10-16T15:09:41;18.70;55.60
21092;DHT22;10704;42.678;23.288;2022-10-16T15:12:07;18.30;56.60
21092;DHT22;10704;42.678;23.288;2022-10-16T15:14:33;18.00;57.60
21092;DHT22;10704;42.678;23.288;2022-10-16T15:16:59;17.80;57.90
21092;DHT22;10704;42.678;23.288;2022-10-16T15:19:25;17.40;58.90
21092;DHT22;10704;42.678;23.288;2022-10-16T15:21:50;17.30;59.80
21092;DHT22;10704;42.678;23.288;2022-10-16T15:24:18;17.30;59.90
21092;DHT22;10704;42.678;23.288;2022-10-16T15:26:44;17.10;60.50
21092;DHT22;10704;42.678;23.288;2022-10-16T15:29:12;17.00;61.40
21092;DHT22;10704;42.678;23.288;2022-10-16T15:31:38;16.90;61.80
21092;DHT22;10704;42.678;23.288;2022-10-16T15:34:04;16.80;62.10
21092;DHT22;10704;42.678;23.288;2022-10-16T15:36:33;16.60;62.90
21092;DHT22;10704;42.678;23.288;2022-10-16T15:39:03;16.50;63.40
21092;DHT22;10704;42.678;23.288;2022-10-16T15:41:29;16.50;63.30
21092;DHT22;10704;42.678;23.288;2022-10-16T15:43:55;16.40;63.80
21092;DHT22;10704;42.678;23.288;2022-10-16T15:46:22;16.20;64.40
21092;DHT22;10704;42.678;23.288;2022-10-16T15:48:50;16.10;64.80
21092;DHT22;10704;42.678;23.288;2022-10-16T15:51:18;15.80;65.80
21092;DHT22;10704;42.678;23.288;2022-10-16T15:53:44;15.50;66.70
21092;DHT22;10704;42.678;23.288;2022-10-16T15:56:12;15.40;67.50
21092;DHT22;10704;42.678;23.288;2022-10-16T15:58:39;15.30;68.10
21092;DHT22;10704;42.678;23.288;2022-10-16T16:01:06;15.10;68.60
21092;DHT22;10704;42.678;23.288;2022-10-16T16:03:32;15.00;69.30
21092;DHT22;10704;42.678;23.288;2022-10-16T16:06:04;14.90;69.70
21092;DHT22;10704;42.678;23.288;2022-10-16T16:08:30;14.90;70.10
21092;DHT22;10704;42.678;23.288;2022-10-16T16:11:22;14.80;70.30
21092;DHT22;10704;42.678;23.288;2022-10-16T16:13:49;14.70;71.10
21092;DHT22;10704;42.678;23.288;2022-10-16T16:16:16;14.70;71.50
21092;DHT22;10704;42.678;23.288;2022-10-16T16:18:43;14.50;71.80
21092;DHT22;10704;42.678;23.288;2022-10-16T16:21:11;14.50;72.00
21092;DHT22;10704;42.678;23.288;2022-10-16T16:23:37;14.40;72.70
21092;DHT22;10704;42.678;23.288;2022-10-16T16:26:15;14.40;73.10
21092;DHT22;10704;42.678;23.288;2022-10-16T16:28:43;14.40;73.80
21092;DHT22;10704;42.678;23.288;2022-10-16T16:31:09;14.30;74.10
21092;DHT22;10704;42.678;23.288;2022-10-16T16:33:35;14.20;74.10
21092;DHT22;10704;42.678;23.288;2022-10-16T16:36:04;14.10;74.50
21092;DHT22;10704;42.678;23.288;2022-10-16T16:38:32;14.10;74.90
21092;DHT22;10704;42.678;23.288;2022-10-16T16:40:58;14.10;76.40
21092;DHT22;10704;42.678;23.288;2022-10-16T16:43:26;14.00;76.60
21092;DHT22;10704;42.678;23.288;2022-10-16T16:45:54;14.00;77.10
21092;DHT22;10704;42.678;23.288;2022-10-16T16:52:07;13.80;77.20
21092;DHT22;10704;42.678;23.288;2022-10-16T16:54:33;13.80;77.70
21092;DHT22;10704;42.678;23.288;2022-10-16T16:57:00;13.90;77.80
21092;DHT22;10704;42.678;23.288;2022-10-16T16:59:26;14.00;78.10
21092;DHT22;10704;42.678;23.288;2022-10-16T17:01:52;14.10;77.90
21092;DHT22;10704;42.678;23.288;2022-10-16T17:04:18;14.20;80.40
21092;DHT22;10704;42.678;23.288;2022-10-16T17:06:45;14.20;77.60
21092;DHT22;10704;42.678;23.288;2022-10-16T17:09:11;14.10;77.70
21092;DHT22;10704;42.678;23.288;2022-10-16T17:11:41;14.10;78.10
21092;DHT22;10704;42.678;23.288;2022-10-16T17:14:08;14.00;78.70
21092;DHT22;10704;42.678;23.288;2022-10-16T17:16:36;13.90;79.10
21092;DHT22;10704;42.678;23.288;2022-10-16T17:19:05;13.80;79.30
21092;DHT22;10704;42.678;23.288;2022-10-16T17:21:32;13.80;79.80
21092;DHT22;10704;42.678;23.288;2022-10-16T17:23:59;13.80;79.50
21092;DHT22;10704;42.678;23.288;2022-10-16T17:26:25;13.70;79.80
21092;DHT22;10704;42.678;23.288;2022-10-16T17:28:54;13.60;80.40
21092;DHT22;10704;42.678;23.288;2022-10-16T17:31:24;13.50;83.50
21092;DHT22;10704;42.678;23.288;2022-10-16T17:33:50;13.50;85.30
21092;DHT22;10704;42.678;23.288;2022-10-16T17:36:17;13.20;89.60
21092;DHT22;10704;42.678;23.288;2022-10-16T17:38:43;13.30;90.60
21092;DHT22;10704;42.678;23.288;2022-10-16T17:43:38;12.90;94.40
21092;DHT22;10704;42.678;23.288;2022-10-16T17:46:04;12.70;97.50
21092;DHT22;10704;42.678;23.288;2022-10-16T17:48:30;12.60;99.30
21092;DHT22;10704;42.678;23.288;2022-10-16T17:50:56;12.50;99.90
21092;DHT22;10704;42.678;23.288;2022-10-16T17:53:22;12.40;99.90
21092;DHT22;10704;42.678;23.288;2022-10-16T17:55:48;12.50;99.90
21092;DHT22;10704;42.678;23.288;2022-10-16T17:58:14;12.40;99.90
21092;DHT22;10704;42.678;23.288;2022-10-16T18:00:40;12.50;99.90
21092;DHT22;10704;42.678;23.288;2022-10-16T18:03:06;12.50;99.90
21092;DHT22;10704;42.678;23.288;2022-10-16T18:05:37;12.30;99.90
21092;DHT22;10704;42.678;23.288;2022-10-16T18:08:03;12.30;99.90
21092;DHT22;10704;42.678;23.288;2022-10-16T18:10:29;12.20;99.90
21092;DHT22;10704;42.678;23.288;2022-10-16T18:12:54;12.20;99.90
21092;DHT22;10704;42.678;23.288;2022-10-16T18:15:21;12.10;99.90
21092;DHT22;10704;42.678;23.288;2022-10-16T18:17:47;12.10;99.90
21092;DHT22;10704;42.678;23.288;2022-10-16T18:20:13;12.10;99.90
21092;DHT22;10704;42.678;23.288;2022-10-16T18:22:39;12.10;99.90
21092;DHT22;10704;42.678;23.288;2022-10-16T18:25:05;11.90;99.90
21092;DHT22;10704;42.678;23.288;2022-10-16T18:27:32;11.70;99.90
21092;DHT22;10704;42.678;23.288;2022-10-16T18:29:58;11.70;99.90
21092;DHT22;10704;42.678;23.288;2022-10-16T18:32:25;11.60;99.90
21092;DHT22;10704;42.678;23.288;2022-10-16T18:34:52;11.40;99.90
21092;DHT22;10704;42.678;23.288;2022-10-16T18:37:19;11.30;99.90
21092;DHT22;10704;42.678;23.288;2022-10-16T18:39:46;11.10;99.90
21092;DHT22;10704;42.678;23.288;2022-10-16T18:42:15;11.00;99.90
21092;DHT22;10704;42.678;23.288;2022-10-16T18:44:41;10.90;99.90
21092;DHT22;10704;42.678;23.288;2022-10-16T18:47:07;10.80;99.90
21092;DHT22;10704;42.678;23.288;2022-10-16T18:49:34;10.80;99.90
21092;DHT22;10704;42.678;23.288;2022-10-16T18:51:59;10.80;99.90
21092;DHT22;10704;42.678;23.288;2022-10-16T18:54:28;10.70;99.90
21092;DHT22;10704;42.678;23.288;2022-10-16T18:56:54;10.60;99.90
21092;DHT22;10704;42.678;23.288;2022-10-16T18:59:20;10.60;99.90
21092;DHT22;10704;42.678;23.288;2022-10-16T19:01:48;10.70;99.90
21092;DHT22;10704;42.678;23.288;2022-10-16T19:04:15;10.70;99.90
21092;DHT22;10704;42.678;23.288;2022-10-16T19:06:46;10.70;99.90
21092;DHT22;10704;42.678;23.288;2022-10-16T19:09:15;10.70;99.90
21092;DHT22;10704;42.678;23.288;2022-10-16T19:11:42;10.80;99.90
21092;DHT22;10704;42.678;23.288;2022-10-16T19:14:10;10.80;99.90
21092;DHT22;10704;42.678;23.288;2022-10-16T19:16:36;10.90;99.90
21092;DHT22;10704;42.678;23.288;2022-10-16T19:19:06;10.90;99.90
21092;DHT22;10704;42.678;23.288;2022-10-16T19:21:35;10.90;99.90
21092;DHT22;10704;42.678;23.288;2022-10-16T19:24:02;10.90;99.90
21092;DHT22;10704;42.678;23.288;2022-10-16T19:26:30;10.90;99.90
21092;DHT22;10704;42.678;23.288;2022-10-16T19:28:59;10.90;99.90
21092;DHT22;10704;42.678;23.288;2022-10-16T19:31:27;10.80;99.90
21092;DHT22;10704;42.678;23.288;2022-10-16T19:33:55;10.80;99.90
21092;DHT22;10704;42.678;23.288;2022-10-16T19:36:26;10.70;99.90
21092;DHT22;10704;42.678;23.288;2022-10-16T19:39:00;10.70;99.90
21092;DHT22;10704;42.678;23.288;2022-10-16T19:41:27;10.70;99.90
21092;DHT22;10704;42.678;23.288;2022-10-16T19:43:54;10.70;99.90
21092;DHT22;10704;42.678;23.288;2022-10-16T19:46:23;10.60;99.90
21092;DHT22;10704;42.678;23.288;2022-10-16T19:48:53;10.50;99.90
21092;DHT22;10704;42.678;23.288;2022-10-16T19:51:21;10.40;99.90
21092;DHT22;10704;42.678;23.288;2022-10-16T19:53:47;10.40;99.90
21092;DHT22;10704;42.678;23.288;2022-10-16T19:56:18;10.50;99.90
21092;DHT22;10704;42.678;23.288;2022-10-16T19:58:46;10.40;99.90
21092;DHT22;10704;42.678;23.288;2022-10-16T20:01:13;10.50;99.90
21092;DHT22;10704;42.678;23.288;2022-10-16T20:03:42;10.40;99.90
21092;DHT22;10704;42.678;23.288;2022-10-16T20:06:08;10.40;99.90
21092;DHT22;10704;42.678;23.288;2022-10-16T20:08:36;10.50;99.90
21092;DHT22;10704;42.678;23.288;2022-10-16T20:11:04;10.50;99.90
21092;DHT22;10704;42.678;23.288;2022-10-16T20:13:30;10.40;99.90
21092;DHT22;10704;42.678;23.288;2022-10-16T20:15:56;10.20;99.90
21092;DHT22;10704;42.678;23.288;2022-10-16T20:18:22;10.10;99.90
21092;DHT22;10704;42.678;23.288;2022-10-16T20:20:49;10.10;99.90